createdAt,value
2023-11-24T00:00:56.518Z,1.60
2023-11-24T00:03:37.868Z,1.90
2023-11-24T00:06:07.340Z,1.20
2023-11-24T00:08:34.180Z,1.50
2023-11-24T00:11:02.355Z,1.50
2023-11-24T00:13:29.685Z,1.80
2023-11-24T00:15:56.427Z,2.00
2023-11-24T00:18:22.812Z,2.10
2023-11-24T00:20:49.281Z,1.80
2023-11-24T00:23:16.746Z,1.40
2023-11-24T00:25:43.660Z,1.60
2023-11-24T00:28:10.153Z,1.30
2023-11-24T00:30:36.687Z,1.40
2023-11-24T00:33:03.599Z,1.50
2023-11-24T00:35:31.618Z,1.00
2023-11-24T00:37:58.309Z,3.00
2023-11-24T00:40:24.753Z,1.60
2023-11-24T00:42:51.108Z,1.50
2023-11-24T00:45:18.609Z,1.80
2023-11-24T00:47:44.924Z,1.50
2023-11-24T00:50:11.368Z,1.60
2023-11-24T00:52:37.668Z,1.10
2023-11-24T00:55:05.817Z,1.30
2023-11-24T00:57:33.201Z,1.30
2023-11-24T01:00:00.015Z,1.60
2023-11-24T01:02:26.773Z,1.30
2023-11-24T01:04:53.125Z,1.40
2023-11-24T01:07:20.437Z,0.90
2023-11-24T01:09:46.873Z,0.80
2023-11-24T01:12:13.278Z,0.80
2023-11-24T01:14:39.980Z,1.10
2023-11-24T01:17:06.359Z,0.80
2023-11-24T01:19:33.427Z,1.30
2023-11-24T01:21:59.969Z,1.70
2023-11-24T01:24:26.759Z,1.50
2023-11-24T01:26:54.896Z,1.00
2023-11-24T01:29:21.724Z,0.60
2023-11-24T01:31:48.440Z,0.80
2023-11-24T01:34:15.437Z,0.90
2023-11-24T01:36:44.112Z,1.30
2023-11-24T01:39:13.548Z,1.20
2023-11-24T01:41:41.731Z,0.60
2023-11-24T01:44:09.052Z,0.80
2023-11-24T01:46:36.055Z,0.50
2023-11-24T01:49:05.233Z,0.50
2023-11-24T01:51:32.935Z,0.70
2023-11-24T01:54:00.986Z,1.00
2023-11-24T01:56:29.144Z,0.40
2023-11-24T01:58:55.483Z,0.40
2023-11-24T02:01:23.808Z,0.50
2023-11-24T02:03:50.715Z,0.10
2023-11-24T02:06:19.670Z,0.70
2023-11-24T02:08:46.972Z,0.40
2023-11-24T02:11:14.501Z,0.50
2023-11-24T02:13:40.824Z,0.70
2023-11-24T02:16:08.048Z,0.30
2023-11-24T02:18:34.438Z,0.50
2023-11-24T02:21:03.144Z,0.90
2023-11-24T02:23:30.778Z,0.30
2023-11-24T02:28:23.475Z,0.10
2023-11-24T02:30:50.459Z,0.20
2023-11-24T02:33:19.314Z,0.40
2023-11-24T02:35:46.294Z,0.70
2023-11-24T02:38:12.681Z,0.70
2023-11-24T02:40:42.016Z,0.30
2023-11-24T02:43:08.649Z,0.30
2023-11-24T02:45:35.238Z,0.80
2023-11-24T02:48:02.630Z,0.30
2023-11-24T02:50:29.146Z,0.60
2023-11-24T02:52:55.615Z,0.80
2023-11-24T02:55:22.362Z,0.20
2023-11-24T02:57:49.014Z,0.70
2023-11-24T03:00:18.185Z,0.10
2023-11-24T03:02:45.580Z,1.90
2023-11-24T03:05:12.205Z,0.20
2023-11-24T03:07:38.578Z,0.60
2023-11-24T03:10:06.305Z,0.20
2023-11-24T03:12:33.222Z,0.40
2023-11-24T03:14:59.536Z,0.40
2023-11-24T03:17:26.348Z,0.10
2023-11-24T03:19:53.092Z,0.20
2023-11-24T03:22:19.451Z,0.10
2023-11-24T03:24:46.315Z,0.00
2023-11-24T03:27:13.064Z,0.20
2023-11-24T03:29:40.267Z,0.50
2023-11-24T03:32:07.739Z,0.40
2023-11-24T03:34:34.288Z,0.30
2023-11-24T03:37:00.879Z,0.20
2023-11-24T03:39:27.910Z,0.30
2023-11-24T03:41:54.630Z,0.90
2023-11-24T03:44:21.057Z,0.30
2023-11-24T03:46:47.635Z,0.70
2023-11-24T03:49:14.396Z,0.10
2023-11-24T03:51:41.052Z,0.70
2023-11-24T03:54:08.420Z,1.90
2023-11-24T03:56:35.170Z,0.60
2023-11-24T03:59:01.599Z,0.20
2023-11-24T04:01:28.666Z,0.60
2023-11-24T04:03:56.200Z,0.70
2023-11-24T04:08:49.339Z,4.20
2023-11-24T04:11:15.875Z,0.60
2023-11-24T04:13:42.133Z,0.50
2023-11-24T04:16:08.674Z,0.30
2023-11-24T04:18:35.238Z,0.50
2023-11-24T04:21:01.668Z,0.80
2023-11-24T04:23:28.262Z,1.20
2023-11-24T04:25:54.734Z,0.50
2023-11-24T04:28:21.678Z,0.50
2023-11-24T04:30:48.082Z,0.70
2023-11-24T04:33:14.406Z,0.60
2023-11-24T04:35:41.452Z,0.30
2023-11-24T04:38:08.055Z,0.10
2023-11-24T04:40:34.302Z,1.40
2023-11-24T04:43:01.060Z,0.50
2023-11-24T04:45:27.485Z,1.20
2023-11-24T04:47:53.882Z,0.10
2023-11-24T04:50:20.371Z,0.30
2023-11-24T04:52:46.749Z,0.40
2023-11-24T04:55:13.716Z,0.10
2023-11-24T04:57:40.188Z,0.30
2023-11-24T05:00:08.032Z,0.60
2023-11-24T05:02:35.336Z,1.60
2023-11-24T05:05:02.332Z,2.20
2023-11-24T05:07:29.557Z,1.90
2023-11-24T05:09:56.038Z,0.00
2023-11-24T05:12:22.957Z,0.10
2023-11-24T05:14:49.868Z,0.40
2023-11-24T05:17:16.703Z,0.60
2023-11-24T05:19:43.114Z,0.50
2023-11-24T05:22:09.507Z,1.20
2023-11-24T05:24:39.805Z,0.40
2023-11-24T05:27:06.833Z,0.30
2023-11-24T05:29:34.117Z,0.70
2023-11-24T05:32:01.093Z,0.70
2023-11-24T05:34:28.298Z,0.40
2023-11-24T05:36:54.753Z,1.60
2023-11-24T05:39:21.294Z,1.60
2023-11-24T05:41:48.513Z,1.30
2023-11-24T05:44:19.013Z,1.30
2023-11-24T05:46:46.340Z,1.00
2023-11-24T05:49:13.164Z,1.60
2023-11-24T05:51:40.734Z,0.70
2023-11-24T05:54:08.359Z,0.40
2023-11-24T05:56:34.783Z,1.80
2023-11-24T05:59:01.707Z,0.80
2023-11-24T06:01:28.160Z,0.90
2023-11-24T06:03:54.703Z,0.40
2023-11-24T06:06:21.128Z,1.40
2023-11-24T06:08:47.880Z,1.00
2023-11-24T06:11:18.436Z,2.80
2023-11-24T06:13:46.784Z,0.50
2023-11-24T06:16:13.416Z,1.10
2023-11-24T06:18:40.314Z,1.30
2023-11-24T06:21:11.213Z,5.30
2023-11-24T06:23:38.213Z,2.80
2023-11-24T06:26:04.667Z,2.80
2023-11-24T06:28:31.575Z,1.50
2023-11-24T06:30:58.128Z,1.60
2023-11-24T06:33:25.211Z,2.10
2023-11-24T06:35:53.488Z,3.20
2023-11-24T06:38:19.813Z,2.30
2023-11-24T06:40:46.154Z,1.40
2023-11-24T06:43:12.663Z,5.20
2023-11-24T06:45:39.543Z,1.40
2023-11-24T06:48:06.456Z,1.00
2023-11-24T06:50:33.524Z,2.00
2023-11-24T06:53:00.377Z,1.70
2023-11-24T06:55:26.805Z,1.80
2023-11-24T06:57:53.498Z,1.70
2023-11-24T07:00:21.395Z,2.10
2023-11-24T07:02:49.125Z,0.90
2023-11-24T07:05:16.134Z,1.60
2023-11-24T07:07:42.532Z,1.80
2023-11-24T07:10:12.171Z,2.20
2023-11-24T07:12:38.752Z,1.30
2023-11-24T07:15:06.169Z,2.20
2023-11-24T07:17:32.607Z,1.70
2023-11-24T07:19:59.056Z,1.80
2023-11-24T07:22:25.504Z,2.60
2023-11-24T07:24:52.096Z,1.80
2023-11-24T07:27:18.518Z,1.90
2023-11-24T07:29:45.127Z,0.80
2023-11-24T07:32:12.460Z,1.50
2023-11-24T07:34:39.384Z,1.30
2023-11-24T07:37:07.245Z,1.90
2023-11-24T07:39:34.356Z,1.80
2023-11-24T07:42:00.853Z,1.20
2023-11-24T07:44:34.019Z,1.70
2023-11-24T07:47:00.659Z,1.60
2023-11-24T07:49:27.555Z,1.70
2023-11-24T07:51:54.563Z,2.00
2023-11-24T07:54:22.060Z,1.80
2023-11-24T07:56:48.656Z,6.60
2023-11-24T07:59:15.804Z,2.70
2023-11-24T08:01:42.528Z,2.70
2023-11-24T08:04:09.560Z,2.20
2023-11-24T08:06:36.995Z,2.90
2023-11-24T08:09:08.731Z,3.20
2023-11-24T08:11:35.672Z,3.30
2023-11-24T08:14:02.290Z,3.30
2023-11-24T08:16:28.857Z,9.60
2023-11-24T08:18:55.802Z,5.40
2023-11-24T08:21:22.543Z,5.20
2023-11-24T08:23:49.064Z,3.30
2023-11-24T08:26:18.087Z,2.40
2023-11-24T08:28:45.391Z,4.20
2023-11-24T08:31:19.959Z,3.10
2023-11-24T08:33:46.736Z,3.60
2023-11-24T08:36:13.375Z,2.60
2023-11-24T08:38:41.658Z,2.40
2023-11-24T08:41:23.259Z,3.80
2023-11-24T08:43:57.121Z,7.00
2023-11-24T08:46:24.753Z,2.70
2023-11-24T08:48:51.536Z,3.90
2023-11-24T08:51:18.628Z,3.00
2023-11-24T08:53:45.050Z,4.20
2023-11-24T08:56:11.293Z,2.40
2023-11-24T08:58:37.830Z,4.50
2023-11-24T09:01:06.049Z,5.40
2023-11-24T09:03:32.252Z,2.20
2023-11-24T09:05:58.790Z,3.70
2023-11-24T09:08:26.317Z,2.80
2023-11-24T09:10:52.847Z,1.80
2023-11-24T09:13:19.843Z,1.80
2023-11-24T09:15:46.366Z,1.00
2023-11-24T09:18:13.007Z,2.20
2023-11-24T09:20:39.379Z,2.40
2023-11-24T09:23:07.153Z,3.40
2023-11-24T09:25:33.563Z,3.80
2023-11-24T09:28:00.933Z,2.70
2023-11-24T09:30:27.912Z,1.10
2023-11-24T09:32:57.354Z,3.70
2023-11-24T09:35:24.543Z,1.60
2023-11-24T09:37:53.065Z,4.30
2023-11-24T09:40:23.695Z,5.00
2023-11-24T09:42:51.474Z,1.70
2023-11-24T09:45:27.132Z,4.70
2023-11-24T09:47:55.045Z,2.50
2023-11-24T09:50:26.817Z,2.60
2023-11-24T09:52:59.589Z,4.30
2023-11-24T09:55:30.997Z,2.90
2023-11-24T09:57:58.310Z,1.90
2023-11-24T10:00:25.821Z,3.90
2023-11-24T10:02:53.158Z,2.00
2023-11-24T10:07:50.852Z,3.10
2023-11-24T10:10:26.413Z,4.60
2023-11-24T10:12:54.378Z,4.60
2023-11-24T10:15:21.105Z,2.50
2023-11-24T10:17:48.930Z,3.20
2023-11-24T10:20:19.228Z,2.20
2023-11-24T10:22:49.894Z,6.00
2023-11-24T10:25:30.211Z,3.20
2023-11-24T10:28:08.767Z,3.90
2023-11-24T10:30:36.266Z,2.00
2023-11-24T10:33:07.180Z,2.30
2023-11-24T10:35:33.697Z,2.50
2023-11-24T10:38:03.228Z,3.70
2023-11-24T10:40:29.684Z,3.10
2023-11-24T10:42:57.219Z,6.40
2023-11-24T10:45:25.419Z,3.70
2023-11-24T10:48:11.430Z,3.10
2023-11-24T10:50:46.948Z,3.50
2023-11-24T10:53:24.318Z,2.00
2023-11-24T10:55:53.753Z,2.90
2023-11-24T10:58:27.610Z,1.80
2023-11-24T11:03:20.517Z,3.10
2023-11-24T11:06:04.837Z,1.20
2023-11-24T11:08:42.614Z,1.50
2023-11-24T11:11:50.792Z,3.60
2023-11-24T11:14:20.306Z,3.20
2023-11-24T11:16:50.720Z,3.10
2023-11-24T11:19:30.900Z,2.80
2023-11-24T11:22:01.067Z,4.60
2023-11-24T11:24:31.222Z,2.90
2023-11-24T11:26:58.491Z,2.80
2023-11-24T11:29:28.608Z,3.00
2023-11-24T11:31:56.286Z,6.70
2023-11-24T11:34:32.503Z,2.70
2023-11-24T11:37:12.330Z,2.20
2023-11-24T11:39:54.110Z,3.80
2023-11-24T11:42:29.558Z,4.40
2023-11-24T11:44:58.908Z,1.50
2023-11-24T11:47:27.172Z,2.20
2023-11-24T11:49:56.651Z,2.20
2023-11-24T11:52:28.341Z,3.70
2023-11-24T11:54:56.745Z,3.60
2023-11-24T11:57:23.492Z,1.90
2023-11-24T11:59:50.857Z,2.80
2023-11-24T12:02:22.059Z,2.40
2023-11-24T12:04:50.069Z,3.40
2023-11-24T12:07:19.657Z,3.20
2023-11-24T12:09:47.686Z,3.00
2023-11-24T12:12:14.217Z,1.80
2023-11-24T12:14:42.981Z,2.90
2023-11-24T12:17:14.556Z,3.70
2023-11-24T12:19:42.556Z,3.40
2023-11-24T12:22:10.517Z,2.90
2023-11-24T12:24:37.949Z,3.20
2023-11-24T12:27:05.305Z,3.70
2023-11-24T12:29:31.512Z,2.10
2023-11-24T12:31:58.826Z,2.10
2023-11-24T12:34:28.649Z,3.30
2023-11-24T12:36:55.806Z,3.40
2023-11-24T12:39:34.437Z,2.90
2023-11-24T12:42:01.261Z,2.80
2023-11-24T12:44:30.129Z,3.80
2023-11-24T12:47:19.208Z,2.40
2023-11-24T12:50:06.834Z,1.80
2023-11-24T12:52:36.288Z,2.80
2023-11-24T12:55:07.859Z,4.00
2023-11-24T12:57:35.303Z,3.40
2023-11-24T13:00:26.442Z,5.30
2023-11-24T13:02:58.640Z,2.90
2023-11-24T13:05:26.204Z,6.40
2023-11-24T13:07:53.386Z,1.40
2023-11-24T13:10:20.459Z,5.10
2023-11-24T13:12:46.979Z,4.60
2023-11-24T13:15:15.221Z,3.10
2023-11-24T13:17:43.439Z,3.40
2023-11-24T13:20:14.806Z,2.70
2023-11-24T13:22:42.757Z,4.00
2023-11-24T13:25:10.580Z,4.80
2023-11-24T13:27:41.698Z,2.90
2023-11-24T13:30:12.261Z,3.50
2023-11-24T13:32:40.187Z,2.40
2023-11-24T13:35:07.253Z,3.30
2023-11-24T13:37:33.649Z,3.40
2023-11-24T13:40:01.395Z,2.20
2023-11-24T13:42:28.239Z,1.90
2023-11-24T13:44:54.596Z,2.90
2023-11-24T13:47:21.152Z,3.00
2023-11-24T13:49:47.447Z,3.50
2023-11-24T13:52:15.306Z,4.40
2023-11-24T13:54:41.663Z,4.50
2023-11-24T13:57:07.893Z,2.00
2023-11-24T13:59:35.629Z,2.10
2023-11-24T14:02:04.094Z,2.30
2023-11-24T14:04:33.833Z,8.70
2023-11-24T14:07:01.038Z,14.40
2023-11-24T14:09:32.139Z,11.50
2023-11-24T14:11:59.941Z,18.20
2023-11-24T14:14:27.631Z,15.90
2023-11-24T14:16:56.405Z,8.10
2023-11-24T14:19:23.032Z,9.20
2023-11-24T14:21:50.858Z,4.80
2023-11-24T14:24:17.876Z,6.80
2023-11-24T14:26:44.770Z,5.60
2023-11-24T14:29:13.332Z,4.60
2023-11-24T14:31:40.902Z,2.30
2023-11-24T14:36:37.533Z,3.60
2023-11-24T14:39:04.978Z,2.60
2023-11-24T14:43:59.545Z,1.50
2023-11-24T14:46:30.065Z,1.80
2023-11-24T14:48:56.915Z,4.30
2023-11-24T14:51:23.471Z,2.30
2023-11-24T14:53:50.328Z,1.50
2023-11-24T14:56:17.060Z,4.10
2023-11-24T14:58:43.901Z,2.40
2023-11-24T15:01:10.296Z,2.40
2023-11-24T15:03:38.640Z,1.40
2023-11-24T15:06:07.152Z,2.50
2023-11-24T15:08:38.430Z,2.70
2023-11-24T15:11:06.533Z,1.80
2023-11-24T15:13:36.581Z,1.40
2023-11-24T15:16:11.815Z,2.80
2023-11-24T15:18:43.753Z,2.00
2023-11-24T15:21:36.151Z,2.00
2023-11-24T15:24:03.711Z,3.30
2023-11-24T15:26:34.314Z,5.60
2023-11-24T15:29:01.239Z,2.80
2023-11-24T15:31:27.944Z,3.40
2023-11-24T15:33:54.586Z,5.80
2023-11-24T15:36:27.519Z,5.80
2023-11-24T15:38:57.796Z,3.60
2023-11-24T15:41:30.072Z,2.60
2023-11-24T15:43:56.941Z,3.00
2023-11-24T15:46:30.525Z,4.50
2023-11-24T15:51:26.476Z,2.00
2023-11-24T15:53:53.256Z,2.70
2023-11-24T15:56:24.350Z,2.40
2023-11-24T15:58:55.553Z,1.90
2023-11-24T16:01:23.113Z,3.30
2023-11-24T16:03:50.124Z,2.40
2023-11-24T16:06:25.528Z,2.60
2023-11-24T16:08:55.891Z,2.60
2023-11-24T16:11:29.303Z,1.80
2023-11-24T16:13:59.230Z,1.90
2023-11-24T16:16:29.195Z,2.00
2023-11-24T16:18:56.038Z,1.80
2023-11-24T16:21:28.104Z,1.90
2023-11-24T16:23:54.387Z,1.70
2023-11-24T16:26:20.972Z,0.60
2023-11-24T16:28:48.018Z,0.80
2023-11-24T16:31:15.593Z,0.90
2023-11-24T16:36:10.197Z,1.00
2023-11-24T16:38:37.637Z,2.80
2023-11-24T16:41:05.140Z,1.30
2023-11-24T16:43:31.906Z,0.30
2023-11-24T16:45:58.862Z,1.00
2023-11-24T16:48:25.208Z,1.10
2023-11-24T16:50:52.594Z,1.20
2023-11-24T16:53:19.248Z,2.00
2023-11-24T16:55:47.519Z,1.20
2023-11-24T16:58:14.576Z,1.80
2023-11-24T17:00:42.579Z,2.90
2023-11-24T17:03:11.208Z,3.30
2023-11-24T17:05:38.627Z,2.00
2023-11-24T17:08:07.129Z,3.00
2023-11-24T17:10:34.540Z,1.80
2023-11-24T17:13:05.353Z,4.70
2023-11-24T17:15:31.868Z,2.50
2023-11-24T17:17:58.729Z,2.90
2023-11-24T17:20:26.438Z,2.30
2023-11-24T17:25:32.031Z,1.60
2023-11-24T17:28:03.520Z,3.60
2023-11-24T17:30:30.038Z,3.10
2023-11-24T17:32:57.567Z,2.60
2023-11-24T17:35:25.870Z,2.80
2023-11-24T17:37:52.915Z,2.20
2023-11-24T17:40:22.379Z,1.30
2023-11-24T17:42:49.838Z,1.90
2023-11-24T17:45:17.267Z,1.00
2023-11-24T17:47:46.335Z,1.60
2023-11-24T17:50:15.884Z,1.60
2023-11-24T17:52:43.128Z,2.50
2023-11-24T17:55:10.256Z,1.50
2023-11-24T17:57:38.480Z,2.90
2023-11-24T18:00:09.610Z,2.10
2023-11-24T18:02:36.547Z,1.50
2023-11-24T18:05:14.198Z,1.50
2023-11-24T18:07:40.613Z,1.60
2023-11-24T18:10:08.004Z,1.70
2023-11-24T18:12:34.845Z,1.60
2023-11-24T18:15:04.701Z,1.90
2023-11-24T18:17:34.113Z,2.20
2023-11-24T18:20:00.627Z,2.40
2023-11-24T18:22:27.766Z,2.40
2023-11-24T18:24:54.766Z,1.80
2023-11-24T18:27:24.372Z,2.60
2023-11-24T18:29:52.160Z,3.20
2023-11-24T18:32:18.838Z,2.50
2023-11-24T18:34:45.488Z,2.00
2023-11-24T18:37:13.317Z,3.40
2023-11-24T18:42:06.527Z,1.60
2023-11-24T18:44:32.858Z,2.70
2023-11-24T18:46:59.724Z,2.00
2023-11-24T18:49:27.213Z,1.80
2023-11-24T18:51:53.574Z,4.70
2023-11-24T18:54:20.083Z,3.70
2023-11-24T18:56:48.052Z,2.70
2023-11-24T18:59:16.689Z,3.70
2023-11-24T19:01:43.370Z,2.80
2023-11-24T19:04:09.854Z,4.00
2023-11-24T19:06:36.677Z,3.00
2023-11-24T19:09:03.757Z,4.50
2023-11-24T19:11:31.184Z,3.10
2023-11-24T19:14:00.486Z,5.50
2023-11-24T19:16:27.307Z,6.00
2023-11-24T19:18:54.361Z,5.70
2023-11-24T19:21:24.780Z,2.80
2023-11-24T19:23:53.026Z,4.30
2023-11-24T19:26:20.063Z,5.80
2023-11-24T19:28:59.016Z,2.70
2023-11-24T19:31:32.449Z,3.20
2023-11-24T19:33:59.684Z,2.70
2023-11-24T19:36:26.682Z,1.90
2023-11-24T19:38:53.051Z,2.70
2023-11-24T19:41:20.026Z,3.20
2023-11-24T19:43:50.508Z,2.30
2023-11-24T19:46:17.367Z,5.30
2023-11-24T19:48:44.126Z,3.80
2023-11-24T19:51:10.696Z,4.20
2023-11-24T19:53:37.725Z,3.90
2023-11-24T19:56:04.632Z,4.40
2023-11-24T19:58:31.018Z,3.50
2023-11-24T20:00:59.401Z,3.40
2023-11-24T20:03:28.519Z,4.90
2023-11-24T20:05:55.342Z,5.40
2023-11-24T20:08:22.295Z,5.90
2023-11-24T20:10:48.647Z,3.70
2023-11-24T20:13:15.291Z,3.50
2023-11-24T20:15:43.494Z,2.80
2023-11-24T20:18:11.608Z,4.70
2023-11-24T20:20:39.801Z,3.90
2023-11-24T20:23:09.459Z,5.40
2023-11-24T20:25:36.460Z,4.70
2023-11-24T20:28:03.993Z,4.70
2023-11-24T20:30:30.559Z,3.00
2023-11-24T20:32:57.235Z,3.40
2023-11-24T20:35:24.388Z,3.10
2023-11-24T20:37:52.091Z,3.10
2023-11-24T20:42:47.947Z,3.10
2023-11-24T20:45:15.123Z,2.90
2023-11-24T20:47:42.072Z,3.90
2023-11-24T20:50:11.263Z,5.70
2023-11-24T20:52:37.684Z,2.50
2023-11-24T20:55:06.493Z,3.50
2023-11-24T20:57:32.919Z,2.60
2023-11-24T21:00:00.160Z,6.00
2023-11-24T21:02:27.432Z,2.90
2023-11-24T21:04:53.810Z,2.70
2023-11-24T21:07:20.518Z,2.80
2023-11-24T21:09:48.558Z,3.10
2023-11-24T21:12:15.373Z,2.60
2023-11-24T21:14:42.966Z,2.30
2023-11-24T21:17:09.404Z,2.00
2023-11-24T21:19:36.827Z,4.70
2023-11-24T21:22:03.535Z,4.10
2023-11-24T21:24:30.488Z,2.10
2023-11-24T21:26:57.822Z,4.70
2023-11-24T21:29:24.153Z,3.20
2023-11-24T21:31:50.649Z,2.90
2023-11-24T21:34:18.121Z,3.50
2023-11-24T21:36:44.952Z,3.10
2023-11-24T21:39:14.560Z,2.70
2023-11-24T21:41:45.919Z,3.10
2023-11-24T21:44:13.431Z,4.10
2023-11-24T21:46:44.737Z,4.00
2023-11-24T21:49:12.881Z,1.70
2023-11-24T21:51:42.949Z,2.50
2023-11-24T21:54:09.871Z,3.30
2023-11-24T21:56:37.441Z,4.20
2023-11-24T21:59:04.478Z,2.20
2023-11-24T22:01:35.426Z,2.20
2023-11-24T22:04:01.851Z,2.10
2023-11-24T22:06:34.721Z,5.30
2023-11-24T22:09:04.574Z,1.70
2023-11-24T22:11:33.104Z,3.00
2023-11-24T22:14:00.322Z,1.80
2023-11-24T22:16:26.956Z,2.30
2023-11-24T22:18:53.922Z,2.40
2023-11-24T22:21:21.632Z,2.20
2023-11-24T22:26:24.099Z,1.50
2023-11-24T22:28:52.706Z,1.80
2023-11-24T22:31:19.658Z,1.90
2023-11-24T22:33:46.551Z,4.10
2023-11-24T22:36:19.630Z,1.30
2023-11-24T22:38:47.650Z,1.20
2023-11-24T22:41:24.960Z,2.10
2023-11-24T22:43:52.608Z,2.40
2023-11-24T22:46:26.310Z,2.50
2023-11-24T22:51:27.452Z,1.20
2023-11-24T22:56:22.865Z,4.50
2023-11-24T22:58:55.355Z,1.70
2023-11-24T23:01:23.282Z,2.30
2023-11-24T23:03:54.963Z,3.60
2023-11-24T23:06:24.007Z,1.50
2023-11-24T23:08:51.964Z,1.80
2023-11-24T23:11:20.224Z,1.60
2023-11-24T23:13:50.869Z,3.30
2023-11-24T23:16:20.334Z,3.90
2023-11-24T23:18:47.548Z,3.00
2023-11-24T23:21:15.611Z,4.50
2023-11-24T23:26:10.977Z,3.20
2023-11-24T23:28:38.167Z,3.10
2023-11-24T23:31:08.303Z,4.40
2023-11-24T23:33:42.137Z,2.10
2023-11-24T23:36:13.942Z,1.20
2023-11-24T23:38:41.765Z,3.20
2023-11-24T23:43:35.647Z,2.10
2023-11-24T23:46:07.716Z,1.90
2023-11-24T23:48:34.633Z,2.60
2023-11-24T23:51:02.057Z,2.10
2023-11-24T23:53:29.045Z,1.70
2023-11-24T23:55:57.166Z,5.70
2023-11-24T23:58:25.720Z,3.00
